sensor_id;sensor_type;location;lat;lon;timestamp;pressure;altitude;pressure_sealevel;temperature;humidity
6132;BME280;3097;42.692;23.278;2022-12-18T00:00:30;95758.59;;;7.73;98.79
6132;BME280;3097;42.692;23.278;2022-12-18T00:02:55;95775.31;;;7.69;98.91
6132;BME280;3097;42.692;23.278;2022-12-18T00:05:21;95750.53;;;7.40;99.80
6132;BME280;3097;42.692;23.278;2022-12-18T00:07:46;95785.78;;;7.53;100.00
6132;BME280;3097;42.692;23.278;2022-12-18T00:10:12;95785.38;;;7.49;99.17
6132;BME280;3097;42.692;23.278;2022-12-18T00:12:37;95784.84;;;7.39;100.00
6132;BME280;3097;42.692;23.278;2022-12-18T00:15:03;95787.13;;;7.49;100.00
6132;BME280;3097;42.692;23.278;2022-12-18T00:17:28;95789.63;;;7.42;100.00
6132;BME280;3097;42.692;23.278;2022-12-18T00:19:54;95796.59;;;7.48;99.76
6132;BME280;3097;42.692;23.278;2022-12-18T00:22:19;95800.84;;;7.41;98.43
6132;BME280;3097;42.692;23.278;2022-12-18T00:24:45;95795.09;;;7.24;100.00
6132;BME280;3097;42.692;23.278;2022-12-18T00:27:10;95794.69;;;7.21;99.88
6132;BME280;3097;42.692;23.278;2022-12-18T00:29:36;95800.94;;;7.18;99.43
6132;BME280;3097;42.692;23.278;2022-12-18T00:32:01;95802.81;;;7.10;100.00
6132;BME280;3097;42.692;23.278;2022-12-18T00:34:26;95814.47;;;7.12;100.00
6132;BME280;3097;42.692;23.278;2022-12-18T00:36:52;95786.19;;;6.91;100.00
6132;BME280;3097;42.692;23.278;2022-12-18T00:39:17;95811.53;;;7.15;100.00
6132;BME280;3097;42.692;23.278;2022-12-18T00:41:43;95814.72;;;7.03;100.00
6132;BME280;3097;42.692;23.278;2022-12-18T00:44:26;95816.59;;;7.09;100.00
6132;BME280;3097;42.692;23.278;2022-12-18T00:46:52;95803.75;;;6.94;98.37
6132;BME280;3097;42.692;23.278;2022-12-18T00:49:19;95794.03;;;6.75;100.00
6132;BME280;3097;42.692;23.278;2022-12-18T00:51:44;95827.88;;;6.99;99.78
6132;BME280;3097;42.692;23.278;2022-12-18T00:54:10;95828.09;;;6.98;98.27
6132;BME280;3097;42.692;23.278;2022-12-18T00:56:38;95829.31;;;6.87;99.05
6132;BME280;3097;42.692;23.278;2022-12-18T00:59:04;95835.22;;;6.88;99.37
6132;BME280;3097;42.692;23.278;2022-12-18T01:01:29;95836.63;;;6.76;99.20
6132;BME280;3097;42.692;23.278;2022-12-18T01:03:55;95841.38;;;6.79;98.78
6132;BME280;3097;42.692;23.278;2022-12-18T01:06:23;95838.78;;;6.64;99.39
6132;BME280;3097;42.692;23.278;2022-12-18T01:08:48;95845.34;;;6.67;100.00
6132;BME280;3097;42.692;23.278;2022-12-18T01:11:16;95843.91;;;6.64;99.04
6132;BME280;3097;42.692;23.278;2022-12-18T01:13:42;95847.88;;;6.52;99.04
6132;BME280;3097;42.692;23.278;2022-12-18T01:16:08;95844.41;;;6.45;99.05
6132;BME280;3097;42.692;23.278;2022-12-18T01:18:35;95846.09;;;6.30;100.00
6132;BME280;3097;42.692;23.278;2022-12-18T01:21:06;95853.94;;;6.28;100.00
6132;BME280;3097;42.692;23.278;2022-12-18T01:23:31;95851.44;;;6.20;100.00
6132;BME280;3097;42.692;23.278;2022-12-18T01:25:57;95769.34;;;5.68;100.00
6132;BME280;3097;42.692;23.278;2022-12-18T01:28:23;95857.41;;;6.12;100.00
6132;BME280;3097;42.692;23.278;2022-12-18T01:30:48;95849.50;;;6.22;100.00
6132;BME280;3097;42.692;23.278;2022-12-18T01:33:14;95858.47;;;6.18;100.00
6132;BME280;3097;42.692;23.278;2022-12-18T01:35:41;95856.19;;;6.31;100.00
6132;BME280;3097;42.692;23.278;2022-12-18T01:38:07;95863.50;;;6.34;100.00
6132;BME280;3097;42.692;23.278;2022-12-18T01:40:32;95866.97;;;6.41;100.00
6132;BME280;3097;42.692;23.278;2022-12-18T01:42:57;95862.94;;;6.47;99.72
6132;BME280;3097;42.692;23.278;2022-12-18T01:45:26;95872.03;;;6.49;100.00
6132;BME280;3097;42.692;23.278;2022-12-18T01:50:24;95869.19;;;6.67;98.67
6132;BME280;3097;42.692;23.278;2022-12-18T01:52:54;95865.66;;;6.68;98.81
6132;BME280;3097;42.692;23.278;2022-12-18T01:55:23;95871.81;;;6.59;97.62
6132;BME280;3097;42.692;23.278;2022-12-18T01:57:52;95874.50;;;6.66;97.97
6132;BME280;3097;42.692;23.278;2022-12-18T02:00:20;95863.41;;;6.50;97.43
6132;BME280;3097;42.692;23.278;2022-12-18T02:02:46;95875.88;;;6.53;98.22
6132;BME280;3097;42.692;23.278;2022-12-18T02:05:17;95866.59;;;6.52;97.98
6132;BME280;3097;42.692;23.278;2022-12-18T02:13:12;95881.06;;;6.45;98.33
6132;BME280;3097;42.692;23.278;2022-12-18T02:16:03;95876.59;;;6.39;97.47
6132;BME280;3097;42.692;23.278;2022-12-18T02:18:35;95886.72;;;6.33;99.09
6132;BME280;3097;42.692;23.278;2022-12-18T02:24:30;95896.84;;;6.26;98.45
6132;BME280;3097;42.692;23.278;2022-12-18T02:26:56;95896.63;;;6.36;99.39
6132;BME280;3097;42.692;23.278;2022-12-18T02:29:26;95903.97;;;6.39;98.72
6132;BME280;3097;42.692;23.278;2022-12-18T02:31:57;95895.19;;;6.33;98.45
6132;BME280;3097;42.692;23.278;2022-12-18T02:34:29;95892.94;;;6.38;98.98
6132;BME280;3097;42.692;23.278;2022-12-18T02:36:56;95901.88;;;6.42;98.13
6132;BME280;3097;42.692;23.278;2022-12-18T02:39:25;95904.16;;;6.37;97.33
6132;BME280;3097;42.692;23.278;2022-12-18T02:41:51;95910.22;;;6.36;97.90
6132;BME280;3097;42.692;23.278;2022-12-18T02:44:17;95919.25;;;6.24;97.99
6132;BME280;3097;42.692;23.278;2022-12-18T02:46:45;95911.44;;;6.17;97.73
6132;BME280;3097;42.692;23.278;2022-12-18T02:54:55;95910.03;;;6.15;99.24
6132;BME280;3097;42.692;23.278;2022-12-18T02:57:36;95914.47;;;6.21;98.16
6132;BME280;3097;42.692;23.278;2022-12-18T03:00:16;95912.91;;;6.12;97.75
6132;BME280;3097;42.692;23.278;2022-12-18T03:05:34;95915.91;;;5.84;98.73
6132;BME280;3097;42.692;23.278;2022-12-18T03:08:17;95907.34;;;5.61;99.48
6132;BME280;3097;42.692;23.278;2022-12-18T03:11:11;95921.72;;;5.62;100.00
6132;BME280;3097;42.692;23.278;2022-12-18T03:16:11;95888.53;;;5.46;100.00
6132;BME280;3097;42.692;23.278;2022-12-18T03:18:44;95924.59;;;5.67;100.00
6132;BME280;3097;42.692;23.278;2022-12-18T03:21:13;95927.41;;;5.80;99.93
6132;BME280;3097;42.692;23.278;2022-12-18T03:23:44;95927.63;;;5.71;98.50
6132;BME280;3097;42.692;23.278;2022-12-18T03:26:16;95936.72;;;5.65;98.55
6132;BME280;3097;42.692;23.278;2022-12-18T03:28:46;95930.53;;;5.60;99.67
6132;BME280;3097;42.692;23.278;2022-12-18T03:31:14;95939.00;;;5.60;100.00
6132;BME280;3097;42.692;23.278;2022-12-18T03:33:54;95946.00;;;5.66;99.93
6132;BME280;3097;42.692;23.278;2022-12-18T03:36:21;95905.44;;;5.55;98.40
6132;BME280;3097;42.692;23.278;2022-12-18T03:38:47;95934.81;;;5.67;98.47
6132;BME280;3097;42.692;23.278;2022-12-18T03:41:27;95956.84;;;5.76;97.81
6132;BME280;3097;42.692;23.278;2022-12-18T03:44:12;95958.78;;;5.74;97.98
6132;BME280;3097;42.692;23.278;2022-12-18T03:49:17;95967.09;;;5.76;97.71
6132;BME280;3097;42.692;23.278;2022-12-18T03:51:51;95970.28;;;5.78;98.60
6132;BME280;3097;42.692;23.278;2022-12-18T03:54:18;95973.59;;;5.87;97.91
6132;BME280;3097;42.692;23.278;2022-12-18T03:56:57;95974.44;;;5.88;97.81
6132;BME280;3097;42.692;23.278;2022-12-18T03:59:25;95979.06;;;6.00;97.18
6132;BME280;3097;42.692;23.278;2022-12-18T04:01:53;95974.56;;;5.94;95.34
6132;BME280;3097;42.692;23.278;2022-12-18T04:04:21;95969.63;;;5.84;95.82
6132;BME280;3097;42.692;23.278;2022-12-18T04:06:49;95961.03;;;5.69;96.79
6132;BME280;3097;42.692;23.278;2022-12-18T04:09:15;95987.06;;;5.73;94.80
6132;BME280;3097;42.692;23.278;2022-12-18T04:11:42;95968.09;;;5.51;95.76
6132;BME280;3097;42.692;23.278;2022-12-18T04:14:09;95985.84;;;5.53;96.22
6132;BME280;3097;42.692;23.278;2022-12-18T04:16:35;95995.28;;;5.52;96.07
6132;BME280;3097;42.692;23.278;2022-12-18T04:19:00;96003.75;;;5.53;95.86
6132;BME280;3097;42.692;23.278;2022-12-18T04:21:26;96014.63;;;5.55;96.50
6132;BME280;3097;42.692;23.278;2022-12-18T04:23:51;96003.25;;;5.57;94.76
6132;BME280;3097;42.692;23.278;2022-12-18T04:26:17;96012.88;;;5.47;95.39
6132;BME280;3097;42.692;23.278;2022-12-18T04:28:42;96004.88;;;5.42;96.31
6132;BME280;3097;42.692;23.278;2022-12-18T04:31:07;96018.59;;;5.49;94.97
6132;BME280;3097;42.692;23.278;2022-12-18T04:33:33;96019.59;;;5.48;94.46
6132;BME280;3097;42.692;23.278;2022-12-18T04:35:58;96026.91;;;5.43;94.57
6132;BME280;3097;42.692;23.278;2022-12-18T04:38:24;96025.00;;;5.45;95.53
6132;BME280;3097;42.692;23.278;2022-12-18T04:40:49;96036.84;;;5.46;94.99
6132;BME280;3097;42.692;23.278;2022-12-18T04:43:15;96045.94;;;5.57;93.44
6132;BME280;3097;42.692;23.278;2022-12-18T04:45:40;96047.38;;;5.51;91.84
6132;BME280;3097;42.692;23.278;2022-12-18T04:48:06;96024.38;;;5.35;91.75
6132;BME280;3097;42.692;23.278;2022-12-18T04:50:32;96051.22;;;5.47;91.99
6132;BME280;3097;42.692;23.278;2022-12-18T04:52:57;96054.75;;;5.46;91.47
6132;BME280;3097;42.692;23.278;2022-12-18T04:55:23;96057.94;;;5.40;91.66
6132;BME280;3097;42.692;23.278;2022-12-18T04:57:52;96063.22;;;5.38;91.70
6132;BME280;3097;42.692;23.278;2022-12-18T05:00:17;96069.78;;;5.41;92.43
6132;BME280;3097;42.692;23.278;2022-12-18T05:02:43;96073.28;;;5.56;92.85
6132;BME280;3097;42.692;23.278;2022-12-18T05:05:08;96066.06;;;5.52;91.20
6132;BME280;3097;42.692;23.278;2022-12-18T05:07:34;96071.03;;;5.45;90.74
6132;BME280;3097;42.692;23.278;2022-12-18T05:09:59;96063.19;;;5.14;91.14
6132;BME280;3097;42.692;23.278;2022-12-18T05:12:25;96058.22;;;5.04;91.91
6132;BME280;3097;42.692;23.278;2022-12-18T05:14:51;96092.13;;;5.23;92.88
6132;BME280;3097;42.692;23.278;2022-12-18T05:17:16;96087.00;;;5.31;92.79
6132;BME280;3097;42.692;23.278;2022-12-18T05:19:42;96089.22;;;5.34;93.22
6132;BME280;3097;42.692;23.278;2022-12-18T05:22:07;96104.28;;;5.37;92.95
6132;BME280;3097;42.692;23.278;2022-12-18T05:24:33;96094.84;;;5.37;92.59
6132;BME280;3097;42.692;23.278;2022-12-18T05:26:58;96098.50;;;5.35;92.43
6132;BME280;3097;42.692;23.278;2022-12-18T05:29:24;96106.34;;;5.33;91.79
6132;BME280;3097;42.692;23.278;2022-12-18T05:31:49;96105.53;;;5.25;91.73
6132;BME280;3097;42.692;23.278;2022-12-18T05:34:15;96119.75;;;5.27;92.33
6132;BME280;3097;42.692;23.278;2022-12-18T05:36:40;96104.84;;;5.06;92.78
6132;BME280;3097;42.692;23.278;2022-12-18T05:39:06;96122.47;;;5.34;92.64
6132;BME280;3097;42.692;23.278;2022-12-18T05:41:31;96133.34;;;5.44;92.58
6132;BME280;3097;42.692;23.278;2022-12-18T05:43:58;96135.28;;;5.50;91.42
6132;BME280;3097;42.692;23.278;2022-12-18T05:46:23;96133.66;;;5.49;91.17
6132;BME280;3097;42.692;23.278;2022-12-18T05:48:49;96135.25;;;5.42;89.73
6132;BME280;3097;42.692;23.278;2022-12-18T05:51:18;96134.94;;;5.29;89.19
6132;BME280;3097;42.692;23.278;2022-12-18T05:53:43;96142.13;;;5.25;89.00
6132;BME280;3097;42.692;23.278;2022-12-18T05:56:12;96144.81;;;5.16;89.96
6132;BME280;3097;42.692;23.278;2022-12-18T05:58:38;96141.47;;;5.15;90.60
6132;BME280;3097;42.692;23.278;2022-12-18T06:01:20;96152.97;;;5.19;89.91
6132;BME280;3097;42.692;23.278;2022-12-18T06:03:45;96156.00;;;5.15;90.32
6132;BME280;3097;42.692;23.278;2022-12-18T06:06:21;96156.28;;;5.03;90.96
6132;BME280;3097;42.692;23.278;2022-12-18T06:08:48;96160.63;;;5.11;90.83
6132;BME280;3097;42.692;23.278;2022-12-18T06:11:18;96161.69;;;5.00;90.85
6132;BME280;3097;42.692;23.278;2022-12-18T06:13:44;96150.00;;;4.90;91.24
6132;BME280;3097;42.692;23.278;2022-12-18T06:16:09;96162.47;;;4.93;90.77
6132;BME280;3097;42.692;23.278;2022-12-18T06:18:36;96165.81;;;4.85;91.64
6132;BME280;3097;42.692;23.278;2022-12-18T06:21:02;96171.72;;;4.86;91.84
6132;BME280;3097;42.692;23.278;2022-12-18T06:23:28;96144.34;;;4.70;90.96
6132;BME280;3097;42.692;23.278;2022-12-18T06:25:53;96168.97;;;4.79;91.61
6132;BME280;3097;42.692;23.278;2022-12-18T06:28:19;96169.28;;;4.76;92.19
6132;BME280;3097;42.692;23.278;2022-12-18T06:30:45;96170.72;;;4.79;92.79
6132;BME280;3097;42.692;23.278;2022-12-18T06:33:11;96183.88;;;4.92;92.22
6132;BME280;3097;42.692;23.278;2022-12-18T06:35:37;96178.72;;;4.84;92.17
6132;BME280;3097;42.692;23.278;2022-12-18T06:38:02;96169.00;;;4.87;92.64
6132;BME280;3097;42.692;23.278;2022-12-18T06:40:28;96185.00;;;4.97;93.08
6132;BME280;3097;42.692;23.278;2022-12-18T06:42:53;96191.59;;;5.08;92.97
6132;BME280;3097;42.692;23.278;2022-12-18T06:45:19;96193.84;;;5.19;91.83
6132;BME280;3097;42.692;23.278;2022-12-18T06:47:44;96191.44;;;5.10;89.73
6132;BME280;3097;42.692;23.278;2022-12-18T06:50:10;96191.94;;;5.13;90.90
6132;BME280;3097;42.692;23.278;2022-12-18T06:52:36;96202.97;;;5.22;90.76
6132;BME280;3097;42.692;23.278;2022-12-18T06:55:02;96197.22;;;5.20;90.13
6132;BME280;3097;42.692;23.278;2022-12-18T06:57:28;96174.38;;;5.10;90.01
6132;BME280;3097;42.692;23.278;2022-12-18T06:59:53;96126.81;;;4.83;89.19
6132;BME280;3097;42.692;23.278;2022-12-18T07:02:19;96197.25;;;5.28;88.49
6132;BME280;3097;42.692;23.278;2022-12-18T07:04:44;96213.09;;;5.39;88.63
6132;BME280;3097;42.692;23.278;2022-12-18T07:07:10;96211.69;;;5.53;88.90
6132;BME280;3097;42.692;23.278;2022-12-18T07:09:35;96212.81;;;5.59;87.87
6132;BME280;3097;42.692;23.278;2022-12-18T07:12:01;96167.69;;;5.41;88.11
6132;BME280;3097;42.692;23.278;2022-12-18T07:14:30;96220.81;;;5.72;87.54
6132;BME280;3097;42.692;23.278;2022-12-18T07:16:55;96217.16;;;5.66;86.21
6132;BME280;3097;42.692;23.278;2022-12-18T07:19:23;96220.78;;;5.39;86.50
6132;BME280;3097;42.692;23.278;2022-12-18T07:21:50;96224.09;;;5.24;88.31
6132;BME280;3097;42.692;23.278;2022-12-18T07:24:15;96205.63;;;5.04;88.85
6132;BME280;3097;42.692;23.278;2022-12-18T07:26:41;96192.28;;;4.84;88.03
6132;BME280;3097;42.692;23.278;2022-12-18T07:29:06;96233.22;;;4.92;88.80
6132;BME280;3097;42.692;23.278;2022-12-18T07:31:32;96230.63;;;4.84;89.31
6132;BME280;3097;42.692;23.278;2022-12-18T07:33:57;96229.00;;;4.83;89.94
6132;BME280;3097;42.692;23.278;2022-12-18T07:36:23;96236.47;;;5.02;96.93
6132;BME280;3097;42.692;23.278;2022-12-18T07:38:49;96237.09;;;5.04;92.99
6132;BME280;3097;42.692;23.278;2022-12-18T07:41:15;96245.56;;;5.05;88.93
6132;BME280;3097;42.692;23.278;2022-12-18T07:43:41;96245.84;;;4.94;89.46
6132;BME280;3097;42.692;23.278;2022-12-18T07:46:08;96235.88;;;4.83;90.20
6132;BME280;3097;42.692;23.278;2022-12-18T07:48:34;96244.22;;;4.93;90.07
6132;BME280;3097;42.692;23.278;2022-12-18T07:51:03;96226.72;;;4.72;89.72
6132;BME280;3097;42.692;23.278;2022-12-18T07:53:29;96235.63;;;4.68;90.13
6132;BME280;3097;42.692;23.278;2022-12-18T07:55:57;96255.47;;;4.74;89.92
6132;BME280;3097;42.692;23.278;2022-12-18T07:58:22;96256.66;;;4.62;89.79
6132;BME280;3097;42.692;23.278;2022-12-18T08:00:48;96268.78;;;4.60;91.71
6132;BME280;3097;42.692;23.278;2022-12-18T08:03:14;96264.69;;;4.67;91.22
6132;BME280;3097;42.692;23.278;2022-12-18T08:05:39;96262.91;;;4.67;90.63
6132;BME280;3097;42.692;23.278;2022-12-18T08:08:04;96275.22;;;4.64;91.06
6132;BME280;3097;42.692;23.278;2022-12-18T08:10:30;96270.25;;;4.62;91.15
6132;BME280;3097;42.692;23.278;2022-12-18T08:12:55;96273.59;;;4.63;91.05
6132;BME280;3097;42.692;23.278;2022-12-18T08:15:21;96266.16;;;4.52;91.37
6132;BME280;3097;42.692;23.278;2022-12-18T08:17:49;96279.66;;;4.62;91.55
6132;BME280;3097;42.692;23.278;2022-12-18T08:20:15;96289.13;;;4.70;90.32
6132;BME280;3097;42.692;23.278;2022-12-18T08:22:44;96257.81;;;4.42;90.52
6132;BME280;3097;42.692;23.278;2022-12-18T08:25:13;96278.19;;;4.59;90.89
6132;BME280;3097;42.692;23.278;2022-12-18T08:27:38;96289.63;;;4.73;90.37
6132;BME280;3097;42.692;23.278;2022-12-18T08:30:04;96282.00;;;4.55;89.54
6132;BME280;3097;42.692;23.278;2022-12-18T08:32:30;96298.19;;;4.64;89.99
6132;BME280;3097;42.692;23.278;2022-12-18T08:34:55;96304.16;;;4.73;91.23
6132;BME280;3097;42.692;23.278;2022-12-18T08:37:21;96300.88;;;4.62;88.43
6132;BME280;3097;42.692;23.278;2022-12-18T08:39:46;96314.47;;;4.63;88.45
6132;BME280;3097;42.692;23.278;2022-12-18T08:42:12;96314.34;;;4.47;88.31
6132;BME280;3097;42.692;23.278;2022-12-18T08:44:56;96311.72;;;4.39;89.54
6132;BME280;3097;42.692;23.278;2022-12-18T08:47:21;96315.34;;;4.54;90.20
6132;BME280;3097;42.692;23.278;2022-12-18T08:49:46;96299.44;;;4.60;89.60
6132;BME280;3097;42.692;23.278;2022-12-18T08:52:15;96301.91;;;4.70;89.58
6132;BME280;3097;42.692;23.278;2022-12-18T08:54:40;96285.97;;;4.76;88.30
6132;BME280;3097;42.692;23.278;2022-12-18T08:57:06;96278.09;;;4.69;87.09
6132;BME280;3097;42.692;23.278;2022-12-18T08:59:34;96316.59;;;4.93;87.63
6132;BME280;3097;42.692;23.278;2022-12-18T09:02:00;96311.53;;;5.01;85.80
6132;BME280;3097;42.692;23.278;2022-12-18T09:04:25;96314.16;;;4.92;85.79
6132;BME280;3097;42.692;23.278;2022-12-18T09:06:50;96311.47;;;4.93;87.53
6132;BME280;3097;42.692;23.278;2022-12-18T09:09:19;96315.31;;;4.97;84.95
6132;BME280;3097;42.692;23.278;2022-12-18T09:11:44;96304.22;;;4.81;84.63
6132;BME280;3097;42.692;23.278;2022-12-18T09:14:10;96307.19;;;4.76;85.06
6132;BME280;3097;42.692;23.278;2022-12-18T09:16:36;96311.66;;;4.74;85.88
6132;BME280;3097;42.692;23.278;2022-12-18T09:19:03;96310.69;;;4.75;87.32
6132;BME280;3097;42.692;23.278;2022-12-18T09:21:35;96316.25;;;4.88;86.72
6132;BME280;3097;42.692;23.278;2022-12-18T09:24:04;96298.66;;;4.85;84.71
6132;BME280;3097;42.692;23.278;2022-12-18T09:26:30;96310.63;;;4.85;86.68
6132;BME280;3097;42.692;23.278;2022-12-18T09:28:56;96311.94;;;4.97;87.39
6132;BME280;3097;42.692;23.278;2022-12-18T09:31:23;96312.06;;;5.13;85.82
6132;BME280;3097;42.692;23.278;2022-12-18T09:33:50;96304.66;;;5.36;86.51
6132;BME280;3097;42.692;23.278;2022-12-18T09:36:16;96312.41;;;5.52;84.30
6132;BME280;3097;42.692;23.278;2022-12-18T09:38:42;96320.38;;;5.57;83.49
6132;BME280;3097;42.692;23.278;2022-12-18T09:43:47;96322.31;;;5.55;83.18
6132;BME280;3097;42.692;23.278;2022-12-18T09:46:28;96310.47;;;5.46;81.65
6132;BME280;3097;42.692;23.278;2022-12-18T09:48:59;96319.03;;;5.37;82.72
6132;BME280;3097;42.692;23.278;2022-12-18T09:51:43;96305.09;;;5.23;83.28
6132;BME280;3097;42.692;23.278;2022-12-18T09:54:21;96315.59;;;5.20;82.26
6132;BME280;3097;42.692;23.278;2022-12-18T09:56:49;96307.63;;;5.23;84.99
6132;BME280;3097;42.692;23.278;2022-12-18T09:59:21;96313.97;;;5.45;84.67
6132;BME280;3097;42.692;23.278;2022-12-18T10:01:48;96310.94;;;5.50;82.95
6132;BME280;3097;42.692;23.278;2022-12-18T10:04:14;96295.59;;;5.50;81.74
6132;BME280;3097;42.692;23.278;2022-12-18T10:06:48;96309.91;;;5.34;80.57
6132;BME280;3097;42.692;23.278;2022-12-18T10:12:23;96312.09;;;5.21;84.01
6132;BME280;3097;42.692;23.278;2022-12-18T10:14:52;96308.47;;;5.32;82.55
6132;BME280;3097;42.692;23.278;2022-12-18T10:17:30;96306.16;;;5.47;81.36
6132;BME280;3097;42.692;23.278;2022-12-18T10:20:05;96227.31;;;4.92;81.02
6132;BME280;3097;42.692;23.278;2022-12-18T10:22:58;96319.22;;;5.43;82.30
6132;BME280;3097;42.692;23.278;2022-12-18T10:28:13;96319.19;;;5.69;82.73
6132;BME280;3097;42.692;23.278;2022-12-18T10:30:41;96318.41;;;5.77;80.46
6132;BME280;3097;42.692;23.278;2022-12-18T10:33:13;96303.19;;;5.75;81.13
6132;BME280;3097;42.692;23.278;2022-12-18T10:35:41;96320.84;;;5.95;81.80
6132;BME280;3097;42.692;23.278;2022-12-18T10:38:22;96317.72;;;6.09;82.00
6132;BME280;3097;42.692;23.278;2022-12-18T10:43:37;96312.56;;;6.01;78.06
6132;BME280;3097;42.692;23.278;2022-12-18T10:48:36;96307.25;;;5.94;79.30
6132;BME280;3097;42.692;23.278;2022-12-18T10:51:02;96309.69;;;6.04;79.57
6132;BME280;3097;42.692;23.278;2022-12-18T10:53:31;96314.00;;;6.11;79.23
6132;BME280;3097;42.692;23.278;2022-12-18T10:55:58;96300.13;;;6.30;80.24
6132;BME280;3097;42.692;23.278;2022-12-18T11:03:35;96315.63;;;6.12;74.44
6132;BME280;3097;42.692;23.278;2022-12-18T11:06:22;96311.75;;;5.92;76.82
6132;BME280;3097;42.692;23.278;2022-12-18T11:09:19;96321.03;;;5.93;79.59
6132;BME280;3097;42.692;23.278;2022-12-18T11:11:53;96314.78;;;5.96;79.08
6132;BME280;3097;42.692;23.278;2022-12-18T11:14:42;96322.19;;;6.15;79.54
6132;BME280;3097;42.692;23.278;2022-12-18T11:17:19;96311.63;;;6.26;77.74
6132;BME280;3097;42.692;23.278;2022-12-18T11:19:52;96315.31;;;6.32;78.13
6132;BME280;3097;42.692;23.278;2022-12-18T11:22:33;96316.47;;;6.45;77.52
6132;BME280;3097;42.692;23.278;2022-12-18T11:25:04;96322.34;;;6.62;76.81
6132;BME280;3097;42.692;23.278;2022-12-18T11:27:31;96318.03;;;6.71;76.53
6132;BME280;3097;42.692;23.278;2022-12-18T11:32:49;96317.41;;;6.52;76.54
6132;BME280;3097;42.692;23.278;2022-12-18T11:35:29;96318.06;;;6.46;74.95
6132;BME280;3097;42.692;23.278;2022-12-18T11:38:00;96313.72;;;6.47;75.65
6132;BME280;3097;42.692;23.278;2022-12-18T11:40:40;96301.38;;;6.26;74.30
6132;BME280;3097;42.692;23.278;2022-12-18T11:43:15;96315.16;;;6.25;75.28
6132;BME280;3097;42.692;23.278;2022-12-18T11:46:15;96320.63;;;6.30;76.79
6132;BME280;3097;42.692;23.278;2022-12-18T11:48:52;96314.50;;;6.39;75.65
6132;BME280;3097;42.692;23.278;2022-12-18T11:51:27;96329.56;;;6.34;74.78
6132;BME280;3097;42.692;23.278;2022-12-18T11:53:54;96318.34;;;6.27;75.20
6132;BME280;3097;42.692;23.278;2022-12-18T11:56:44;96310.53;;;6.37;75.72
6132;BME280;3097;42.692;23.278;2022-12-18T12:04:37;96310.38;;;6.30;74.99
6132;BME280;3097;42.692;23.278;2022-12-18T12:09:44;96321.22;;;6.24;77.55
6132;BME280;3097;42.692;23.278;2022-12-18T12:15:13;96308.28;;;6.42;75.89
6132;BME280;3097;42.692;23.278;2022-12-18T12:17:47;96310.03;;;6.49;77.15
6132;BME280;3097;42.692;23.278;2022-12-18T12:23:05;96313.41;;;6.58;75.63
6132;BME280;3097;42.692;23.278;2022-12-18T12:26:12;96317.41;;;6.69;76.99
6132;BME280;3097;42.692;23.278;2022-12-18T12:39:24;96313.56;;;6.81;76.84
6132;BME280;3097;42.692;23.278;2022-12-18T12:41:51;96313.06;;;6.85;75.54
6132;BME280;3097;42.692;23.278;2022-12-18T12:44:41;96306.97;;;6.78;76.53
6132;BME280;3097;42.692;23.278;2022-12-18T12:47:21;96306.84;;;6.72;76.03
6132;BME280;3097;42.692;23.278;2022-12-18T12:49:49;96317.88;;;6.72;75.42
6132;BME280;3097;42.692;23.278;2022-12-18T12:52:28;96324.13;;;6.61;75.16
6132;BME280;3097;42.692;23.278;2022-12-18T12:54:56;96326.38;;;6.56;75.33
6132;BME280;3097;42.692;23.278;2022-12-18T13:00:09;96332.78;;;6.60;76.17
6132;BME280;3097;42.692;23.278;2022-12-18T13:05:30;96321.84;;;6.10;74.67
6132;BME280;3097;42.692;23.278;2022-12-18T13:08:00;96333.66;;;6.03;76.33
6132;BME280;3097;42.692;23.278;2022-12-18T13:13:07;96341.00;;;5.90;78.10
6132;BME280;3097;42.692;23.278;2022-12-18T13:16:04;96346.44;;;5.95;78.64
6132;BME280;3097;42.692;23.278;2022-12-18T13:18:29;96356.41;;;6.06;76.52
6132;BME280;3097;42.692;23.278;2022-12-18T13:25:59;96355.56;;;5.89;76.38
6132;BME280;3097;42.692;23.278;2022-12-18T13:34:24;96360.22;;;5.60;79.47
6132;BME280;3097;42.692;23.278;2022-12-18T13:36:53;96362.34;;;5.72;81.84
6132;BME280;3097;42.692;23.278;2022-12-18T13:41:49;96360.84;;;5.96;77.55
6132;BME280;3097;42.692;23.278;2022-12-18T13:44:36;96375.41;;;5.95;78.52
6132;BME280;3097;42.692;23.278;2022-12-18T13:47:04;96368.72;;;6.02;78.91
6132;BME280;3097;42.692;23.278;2022-12-18T13:49:41;96369.06;;;6.07;77.52
6132;BME280;3097;42.692;23.278;2022-12-18T13:52:21;96386.66;;;6.18;78.04
6132;BME280;3097;42.692;23.278;2022-12-18T13:54:50;96371.25;;;5.94;75.54
6132;BME280;3097;42.692;23.278;2022-12-18T13:57:35;96385.03;;;5.93;76.22
6132;BME280;3097;42.692;23.278;2022-12-18T14:00:23;96388.97;;;5.88;77.13
6132;BME280;3097;42.692;23.278;2022-12-18T14:02:49;96354.84;;;5.71;76.96
6132;BME280;3097;42.692;23.278;2022-12-18T14:05:31;96390.66;;;6.05;76.72
6132;BME280;3097;42.692;23.278;2022-12-18T14:08:07;96394.66;;;6.07;75.34
6132;BME280;3097;42.692;23.278;2022-12-18T14:10:34;96395.09;;;6.03;75.55
6132;BME280;3097;42.692;23.278;2022-12-18T14:13:05;96351.56;;;5.95;81.30
6132;BME280;3097;42.692;23.278;2022-12-18T14:15:33;96391.66;;;6.20;74.88
6132;BME280;3097;42.692;23.278;2022-12-18T14:18:24;96395.50;;;6.16;73.46
6132;BME280;3097;42.692;23.278;2022-12-18T14:20:52;96385.81;;;5.94;73.86
6132;BME280;3097;42.692;23.278;2022-12-18T14:23:37;96395.44;;;5.74;74.64
6132;BME280;3097;42.692;23.278;2022-12-18T14:26:25;96396.88;;;5.68;74.19
6132;BME280;3097;42.692;23.278;2022-12-18T14:28:53;96403.56;;;5.61;74.98
6132;BME280;3097;42.692;23.278;2022-12-18T14:31:25;96412.19;;;5.60;74.97
6132;BME280;3097;42.692;23.278;2022-12-18T14:33:51;96407.41;;;5.65;74.98
6132;BME280;3097;42.692;23.278;2022-12-18T14:36:20;96409.09;;;5.82;75.38
6132;BME280;3097;42.692;23.278;2022-12-18T14:38:51;96383.00;;;5.71;72.60
6132;BME280;3097;42.692;23.278;2022-12-18T14:41:19;96404.44;;;5.78;71.96
6132;BME280;3097;42.692;23.278;2022-12-18T14:43:50;96373.47;;;5.55;73.03
6132;BME280;3097;42.692;23.278;2022-12-18T14:46:29;96401.03;;;5.69;71.33
6132;BME280;3097;42.692;23.278;2022-12-18T14:49:02;96407.03;;;5.52;72.37
6132;BME280;3097;42.692;23.278;2022-12-18T14:51:31;96395.59;;;5.38;73.19
6132;BME280;3097;42.692;23.278;2022-12-18T14:54:02;96386.47;;;5.36;73.73
6132;BME280;3097;42.692;23.278;2022-12-18T14:56:36;96399.34;;;5.52;73.96
6132;BME280;3097;42.692;23.278;2022-12-18T14:59:20;96405.34;;;5.69;73.15
6132;BME280;3097;42.692;23.278;2022-12-18T15:04:35;96402.25;;;5.57;73.16
6132;BME280;3097;42.692;23.278;2022-12-18T15:09:37;96412.25;;;5.76;70.89